createdAt,value
2019-01-09T00:00:39.639Z,-0.30
2019-01-09T00:10:45.018Z,-1.70
2019-01-09T00:20:50.396Z,-1.60
2019-01-09T00:30:55.780Z,-0.80
2019-01-09T00:41:01.138Z,-1.10
2019-01-09T00:51:06.657Z,-1.10
2019-01-09T01:01:12.331Z,-1.20
2019-01-09T01:11:48.719Z,-1.30
2019-01-09T01:22:28.851Z,-1.40
2019-01-09T01:33:12.244Z,-1.50
2019-01-09T01:44:01.727Z,-1.40
2019-01-09T01:54:53.738Z,-1.30
2019-01-09T02:05:09.954Z,-1.30
2019-01-09T02:15:57.659Z,-1.10
2019-01-09T02:26:42.756Z,-1.10
2019-01-09T02:36:48.072Z,-1.30
2019-01-09T02:46:53.626Z,-1.30
2019-01-09T02:56:58.995Z,-1.40
2019-01-09T03:07:04.416Z,-1.50
2019-01-09T03:17:09.737Z,-1.60
2019-01-09T03:27:15.053Z,-1.60
2019-01-09T03:37:20.395Z,-1.70
2019-01-09T03:47:25.722Z,-1.70
2019-01-09T03:57:31.118Z,-1.90
2019-01-09T04:07:36.462Z,-1.90
2019-01-09T04:17:41.715Z,-2.00
2019-01-09T04:27:47.045Z,-2.00
2019-01-09T04:37:52.504Z,-1.90
2019-01-09T04:47:57.895Z,-2.00
2019-01-09T04:58:03.205Z,-2.00
2019-01-09T05:08:08.555Z,-2.00
2019-01-09T05:18:13.874Z,-2.00
2019-01-09T05:28:19.509Z,-2.00
2019-01-09T05:38:24.834Z,-2.00
2019-01-09T05:48:30.059Z,-2.10
2019-01-09T05:58:35.363Z,-2.00
2019-01-09T06:08:40.880Z,-2.10
2019-01-09T06:18:46.294Z,-2.00
2019-01-09T06:28:51.617Z,-2.00
2019-01-09T06:38:57.167Z,-2.00
2019-01-09T06:49:02.439Z,-2.10
2019-01-09T06:59:07.895Z,-2.10
2019-01-09T07:09:13.278Z,-2.10
2019-01-09T07:19:18.601Z,-2.10
2019-01-09T07:29:23.971Z,-2.00
2019-01-09T07:39:29.288Z,-2.00
2019-01-09T07:49:34.827Z,-1.90
2019-01-09T07:59:40.539Z,-1.90
2019-01-09T08:09:46.185Z,-1.90
2019-01-09T08:19:51.634Z,-1.90
2019-01-09T08:29:56.958Z,-1.90
2019-01-09T08:40:02.656Z,-1.90
2019-01-09T08:50:09.154Z,-1.90
2019-01-09T09:00:14.486Z,-1.90
2019-01-09T09:10:19.786Z,-1.90
2019-01-09T09:20:25.448Z,-1.80
2019-01-09T09:30:30.828Z,-1.60
2019-01-09T09:40:36.610Z,-1.50
2019-01-09T09:50:41.945Z,-1.50
2019-01-09T10:00:47.421Z,-1.40
2019-01-09T10:10:52.815Z,-1.30
2019-01-09T10:20:58.202Z,-1.30
2019-01-09T10:31:03.508Z,-1.20
2019-01-09T10:41:08.752Z,-1.10
2019-01-09T10:51:14.028Z,-1.10
2019-01-09T11:01:20.770Z,-0.80
2019-01-09T11:11:26.521Z,-0.80
2019-01-09T11:21:31.964Z,-0.60
2019-01-09T11:31:37.452Z,-0.50
2019-01-09T11:41:42.965Z,-0.80
2019-01-09T11:51:48.374Z,-0.60
2019-01-09T12:01:53.816Z,-0.40
2019-01-09T12:11:59.233Z,-0.40
2019-01-09T12:22:04.892Z,-0.50
2019-01-09T12:32:10.349Z,-0.50
2019-01-09T12:42:15.805Z,-0.50
2019-01-09T12:52:21.141Z,-0.50
2019-01-09T13:02:26.718Z,-0.50
2019-01-09T13:12:34.332Z,-0.60
2019-01-09T13:22:39.815Z,-0.50
2019-01-09T13:32:45.341Z,-0.60
2019-01-09T13:42:50.623Z,-0.80
2019-01-09T13:52:55.977Z,-1.10
2019-01-09T14:03:01.417Z,-1.10
2019-01-09T14:13:06.660Z,-1.40
2019-01-09T14:23:12.083Z,-1.50
2019-01-09T14:33:17.475Z,-1.60
2019-01-09T14:43:22.874Z,-1.60
2019-01-09T14:53:28.305Z,-1.50
2019-01-09T15:03:33.666Z,-1.60
2019-01-09T15:13:39.913Z,-1.60
2019-01-09T15:23:45.468Z,-1.50
2019-01-09T15:33:51.064Z,-1.60
2019-01-09T15:43:56.366Z,-1.60
2019-01-09T15:54:04.674Z,-1.70
2019-01-09T16:04:09.746Z,-1.90
2019-01-09T16:14:15.130Z,-2.00
2019-01-09T16:24:20.538Z,-1.90
2019-01-09T16:34:25.900Z,-2.00
2019-01-09T16:44:32.419Z,-1.90
2019-01-09T16:54:38.061Z,-2.10
2019-01-09T17:04:43.380Z,-2.20
2019-01-09T17:14:48.969Z,-2.30
2019-01-09T17:24:54.520Z,-2.30
2019-01-09T17:34:59.829Z,-2.30
2019-01-09T17:45:06.391Z,-2.40
2019-01-09T17:55:11.996Z,-2.40
2019-01-09T18:05:17.489Z,-2.60
2019-01-09T18:15:23.598Z,-2.70
2019-01-09T18:25:30.096Z,-2.70
2019-01-09T18:35:45.399Z,-2.80
2019-01-09T18:46:14.809Z,-2.80
2019-01-09T18:56:20.153Z,-2.80
2019-01-09T19:06:34.806Z,-2.60
2019-01-09T19:16:32.869Z,-2.60
2019-01-09T19:26:38.316Z,-2.60
2019-01-09T19:36:43.803Z,-3.00
2019-01-09T19:46:49.197Z,-3.20
2019-01-09T19:56:54.715Z,-3.30
2019-01-09T20:07:00.428Z,-3.40
2019-01-09T20:17:05.964Z,-3.50
2019-01-09T20:27:11.261Z,-3.60
2019-01-09T20:37:16.809Z,-3.70
2019-01-09T20:47:23.285Z,-3.70
2019-01-09T20:57:28.772Z,-3.70
2019-01-09T21:07:34.194Z,-4.00
2019-01-09T21:17:39.639Z,-4.30
2019-01-09T21:27:45.177Z,-4.60
2019-01-09T21:37:50.658Z,-4.40
2019-01-09T21:47:56.256Z,-4.50
2019-01-09T21:58:02.689Z,-4.40
2019-01-09T22:08:08.058Z,-4.40
2019-01-09T22:18:13.407Z,-4.40
2019-01-09T22:28:18.855Z,-4.40
2019-01-09T22:38:24.247Z,-4.30
2019-01-09T22:48:29.620Z,-4.40
2019-01-09T22:58:34.912Z,-4.40
2019-01-09T23:08:40.286Z,-4.50
2019-01-09T23:18:45.734Z,-4.50
2019-01-09T23:28:51.025Z,-4.30
2019-01-09T23:38:56.458Z,-4.30
2019-01-09T23:49:01.846Z,-4.40
2019-01-09T23:59:07.410Z,-4.20
